KGSH/GSH METAR and TAF weather

Enter ICAO airport designator
Station Type Date Time Source
KGSH METAR 2020/04/10 18:53 UTC NOAA

KGSH 101853Z AUTO 30014KT 10SM OVC048 05/M04 A3000 RMK AO2 SLP166 T00501039


Station Type Date Time Source
KGSH Decoded METAR 2020/04/10 18:53 UTC NOAA

GOSHEN MUNICIPAL AIRPORT, IN, United States (KGSH) 41-32N 85-47W 252M
Apr 10, 2020 - 02:53 PM EDT / 2020.04.10 1853 UTC
Wind: from the WNW (300 degrees) at 16 MPH (14 KT):0
Visibility: 10 mile(s):0
Sky conditions: overcast
Temperature: 41.0 F (5.0 C)
Dew Point: 25.0 F (-3.9 C)
Relative Humidity: 52%
Pressure (altimeter): 30 in. Hg (1015 hPa)
ob: KGSH 101853Z AUTO 30014KT 10SM OVC048 05/M04 A3000 RMK AO2 SLP166 T00501039
cycle: 19

Station Type Date Time Source
KGSH TAF UTC NOAA

Error!

Example: see airport list